createdAt,value
2019-06-27T00:00:09.181Z,23.35
2019-06-27T00:01:09.205Z,23.21
2019-06-27T00:02:09.158Z,23.26
2019-06-27T00:03:09.150Z,23.25
2019-06-27T00:04:09.136Z,23.32
2019-06-27T00:05:09.126Z,23.19
2019-06-27T00:06:09.115Z,23.26
2019-06-27T00:07:09.133Z,23.19
2019-06-27T00:08:09.091Z,23.19
2019-06-27T00:09:09.078Z,23.18
2019-06-27T00:10:09.068Z,23.14
2019-06-27T00:11:09.059Z,23.16
2019-06-27T00:12:09.078Z,23.18
2019-06-27T00:13:09.041Z,23.16
2019-06-27T00:14:09.023Z,23.16
2019-06-27T00:15:09.015Z,23.18
2019-06-27T00:16:09.004Z,23.15
2019-06-27T00:17:09.022Z,23.12
2019-06-27T00:18:08.978Z,23.12
2019-06-27T00:19:08.971Z,23.12
2019-06-27T00:20:08.957Z,23.18
2019-06-27T00:21:08.948Z,23.18
2019-06-27T00:22:08.970Z,23.14
2019-06-27T00:23:08.925Z,23.18
2019-06-27T00:24:08.913Z,23.12
2019-06-27T00:25:08.902Z,23.07
2019-06-27T00:26:08.892Z,23.06
2019-06-27T00:27:08.910Z,23.00
2019-06-27T00:28:08.869Z,23.00
2019-06-27T00:29:08.855Z,22.97
2019-06-27T00:30:08.846Z,22.94
2019-06-27T00:31:08.833Z,22.91
2019-06-27T00:32:08.855Z,22.85
2019-06-27T00:33:08.811Z,22.82
2019-06-27T00:34:08.801Z,22.81
2019-06-27T00:35:08.790Z,22.84
2019-06-27T00:36:08.788Z,22.84
2019-06-27T00:37:08.802Z,22.85
2019-06-27T00:38:08.760Z,22.82
2019-06-27T00:39:08.744Z,22.74
2019-06-27T00:40:08.737Z,22.84
2019-06-27T00:41:08.721Z,22.70
2019-06-27T00:42:08.759Z,22.76
2019-06-27T00:43:08.699Z,22.75
2019-06-27T00:44:08.689Z,22.72
2019-06-27T00:45:08.677Z,22.69
2019-06-27T00:46:08.667Z,22.66
2019-06-27T00:47:08.690Z,22.69
2019-06-27T00:48:08.644Z,22.63
2019-06-27T00:49:08.633Z,22.61
2019-06-27T00:50:08.621Z,22.59
2019-06-27T00:51:08.608Z,22.60
2019-06-27T00:52:08.630Z,22.54
2019-06-27T00:53:08.587Z,22.49
2019-06-27T00:54:08.574Z,22.48
2019-06-27T00:55:08.564Z,22.46
2019-06-27T00:56:08.554Z,22.46
2019-06-27T00:57:13.973Z,22.51
2019-06-27T00:58:09.530Z,22.46
2019-06-27T00:59:08.518Z,22.44
2019-06-27T01:00:08.506Z,22.41
2019-06-27T01:01:08.501Z,22.42
2019-06-27T01:02:08.491Z,22.33
2019-06-27T01:03:08.509Z,22.36
2019-06-27T01:04:08.464Z,22.29
2019-06-27T01:05:08.450Z,22.35
2019-06-27T01:06:08.441Z,22.29
2019-06-27T01:07:08.431Z,22.21
2019-06-27T01:08:08.453Z,22.15
2019-06-27T01:09:08.405Z,22.24
2019-06-27T01:10:08.396Z,22.20
2019-06-27T01:11:08.387Z,22.21
2019-06-27T01:12:08.375Z,22.17
2019-06-27T01:13:08.396Z,22.21
2019-06-27T01:14:08.350Z,22.19
2019-06-27T01:15:08.338Z,22.06
2019-06-27T01:16:08.327Z,22.09
2019-06-27T01:17:08.315Z,22.11
2019-06-27T01:18:08.335Z,22.09
2019-06-27T01:19:08.297Z,22.14
2019-06-27T01:20:08.283Z,22.14
2019-06-27T01:21:08.274Z,22.12
2019-06-27T01:22:08.259Z,22.06
2019-06-27T01:23:08.283Z,22.08
2019-06-27T01:24:08.238Z,22.02
2019-06-27T01:25:08.230Z,22.01
2019-06-27T01:26:08.215Z,21.91
2019-06-27T01:27:08.204Z,21.99
2019-06-27T01:28:08.223Z,21.93
2019-06-27T01:29:08.183Z,21.91
2019-06-27T01:30:08.171Z,21.82
2019-06-27T01:31:08.163Z,21.83
2019-06-27T01:32:08.151Z,21.81
2019-06-27T01:33:08.170Z,21.81
2019-06-27T01:34:08.129Z,21.79
2019-06-27T01:35:08.113Z,21.73
2019-06-27T01:36:08.102Z,21.68
2019-06-27T01:37:08.093Z,21.63
2019-06-27T01:38:08.115Z,21.64
2019-06-27T01:39:08.072Z,21.63
2019-06-27T01:40:08.059Z,21.63
2019-06-27T01:41:08.050Z,21.56
2019-06-27T01:42:08.034Z,21.56
2019-06-27T01:43:08.057Z,21.53
2019-06-27T01:44:08.011Z,21.45
2019-06-27T01:45:08.001Z,21.43
2019-06-27T01:46:07.991Z,21.56
2019-06-27T01:47:07.981Z,21.46
2019-06-27T01:48:08.003Z,21.52
2019-06-27T01:49:07.958Z,21.43
2019-06-27T01:50:07.947Z,21.42
2019-06-27T01:51:07.935Z,21.48
2019-06-27T01:52:07.922Z,21.46
2019-06-27T01:53:07.943Z,21.42
2019-06-27T01:54:07.901Z,21.42
2019-06-27T01:55:07.890Z,21.42
2019-06-27T01:56:07.880Z,21.43
2019-06-27T01:57:07.872Z,21.46
2019-06-27T01:58:07.890Z,21.45
2019-06-27T01:59:07.854Z,21.49
2019-06-27T02:00:07.835Z,21.36
2019-06-27T02:01:07.823Z,21.45
2019-06-27T02:02:07.811Z,21.37
2019-06-27T02:03:07.802Z,21.40
2019-06-27T02:04:07.845Z,21.43
2019-06-27T02:05:07.785Z,21.36
2019-06-27T02:06:07.769Z,21.36
2019-06-27T02:07:07.772Z,21.33
2019-06-27T02:08:07.748Z,21.28
2019-06-27T02:09:07.767Z,21.30
2019-06-27T02:10:07.726Z,21.26
2019-06-27T02:11:07.712Z,21.21
2019-06-27T02:12:07.704Z,21.16
2019-06-27T02:13:07.697Z,21.22
2019-06-27T02:14:07.730Z,21.13
2019-06-27T02:15:07.670Z,21.18
2019-06-27T02:16:07.684Z,21.19
2019-06-27T02:17:07.644Z,21.13
2019-06-27T02:18:07.633Z,21.16
2019-06-27T02:19:07.656Z,21.12
2019-06-27T02:20:07.611Z,21.08
2019-06-27T02:21:07.599Z,21.05
2019-06-27T02:22:07.590Z,21.08
2019-06-27T02:23:07.577Z,21.01
2019-06-27T02:24:07.608Z,21.01
2019-06-27T02:25:07.561Z,20.94
2019-06-27T02:26:07.545Z,21.00
2019-06-27T02:27:07.531Z,20.91
2019-06-27T02:28:07.522Z,20.85
2019-06-27T02:29:07.542Z,20.85
2019-06-27T02:30:07.499Z,20.88
2019-06-27T02:31:07.488Z,20.78
2019-06-27T02:32:07.476Z,20.81
2019-06-27T02:33:07.478Z,20.75
2019-06-27T02:34:07.578Z,20.82
2019-06-27T02:35:07.444Z,20.75
2019-06-27T02:36:07.433Z,20.72
2019-06-27T02:37:07.426Z,20.72
2019-06-27T02:38:07.410Z,20.71
2019-06-27T02:39:07.431Z,20.76
2019-06-27T02:40:07.388Z,20.72
2019-06-27T02:41:07.376Z,20.72
2019-06-27T02:42:07.366Z,20.66
2019-06-27T02:43:07.357Z,20.64
2019-06-27T02:44:07.385Z,20.66
2019-06-27T02:45:07.336Z,20.68
2019-06-27T02:46:07.320Z,20.71
2019-06-27T02:47:07.319Z,20.64
2019-06-27T02:48:07.386Z,20.60
2019-06-27T02:49:07.319Z,20.60
2019-06-27T02:50:07.275Z,20.53
2019-06-27T02:51:07.268Z,20.63
2019-06-27T02:52:07.255Z,20.53
2019-06-27T02:53:07.252Z,20.42
2019-06-27T02:54:07.234Z,20.48
2019-06-27T02:55:07.256Z,20.48
2019-06-27T02:56:07.214Z,20.46
2019-06-27T02:57:07.201Z,20.34
2019-06-27T02:58:27.591Z,20.37
2019-06-27T02:59:08.175Z,20.38
2019-06-27T03:00:07.207Z,20.34
2019-06-27T03:01:07.153Z,20.34
2019-06-27T03:02:07.142Z,20.35
2019-06-27T03:03:07.127Z,20.30
2019-06-27T03:04:07.118Z,20.34
2019-06-27T03:05:07.154Z,20.30
2019-06-27T03:06:07.096Z,20.33
2019-06-27T03:07:07.084Z,20.27
2019-06-27T03:08:07.074Z,20.26
2019-06-27T03:09:07.063Z,20.30
2019-06-27T03:10:07.087Z,20.27
2019-06-27T03:11:07.046Z,20.16
2019-06-27T03:12:07.029Z,20.19
2019-06-27T03:13:07.019Z,20.19
2019-06-27T03:14:07.015Z,20.16
2019-06-27T03:15:07.026Z,20.25
2019-06-27T03:16:06.984Z,20.13
2019-06-27T03:17:06.972Z,20.16
2019-06-27T03:18:06.962Z,20.15
2019-06-27T03:19:06.951Z,20.10
2019-06-27T03:20:06.971Z,20.05
2019-06-27T03:21:06.927Z,20.02
2019-06-27T03:22:06.928Z,20.00
2019-06-27T03:23:06.903Z,20.04
2019-06-27T03:24:06.894Z,19.95
2019-06-27T03:25:06.914Z,19.95
2019-06-27T03:26:06.887Z,19.92
2019-06-27T03:27:06.867Z,19.92
2019-06-27T03:28:06.847Z,19.90
2019-06-27T03:29:06.841Z,19.92
2019-06-27T03:30:06.864Z,19.82
2019-06-27T03:31:06.849Z,19.89
2019-06-27T03:32:06.802Z,19.90
2019-06-27T03:33:06.794Z,19.80
2019-06-27T03:34:06.795Z,19.89
2019-06-27T03:35:06.802Z,19.85
2019-06-27T03:36:06.762Z,19.90
2019-06-27T03:37:06.748Z,19.89
2019-06-27T03:38:06.740Z,19.90
2019-06-27T03:39:06.729Z,19.94
2019-06-27T03:40:06.753Z,19.94
2019-06-27T03:41:06.755Z,19.87
2019-06-27T03:42:06.691Z,19.72
2019-06-27T03:43:06.677Z,19.75
2019-06-27T03:44:06.677Z,19.71
2019-06-27T03:45:06.690Z,19.71
2019-06-27T03:46:06.665Z,19.75
2019-06-27T03:47:06.633Z,19.71
2019-06-27T03:48:06.634Z,19.62
2019-06-27T03:49:06.610Z,19.58
2019-06-27T03:50:06.672Z,19.64
2019-06-27T03:51:06.588Z,19.60
2019-06-27T03:52:06.581Z,19.61
2019-06-27T03:53:06.569Z,19.65
2019-06-27T03:54:06.560Z,19.60
2019-06-27T03:55:06.583Z,19.60
2019-06-27T03:56:06.535Z,19.58
2019-06-27T03:57:06.529Z,19.64
2019-06-27T03:58:06.512Z,19.60
2019-06-27T03:59:13.002Z,19.58
2019-06-27T04:00:07.519Z,19.53
2019-06-27T04:01:06.487Z,19.50
2019-06-27T04:02:06.472Z,19.53
2019-06-27T04:03:06.455Z,19.45
2019-06-27T04:04:06.444Z,19.55
2019-06-27T04:05:06.432Z,19.50
2019-06-27T04:06:06.452Z,19.53
2019-06-27T04:07:06.411Z,19.50
2019-06-27T04:08:06.403Z,19.50
2019-06-27T04:09:06.388Z,19.52
2019-06-27T04:10:06.384Z,19.53
2019-06-27T04:11:06.394Z,19.46
2019-06-27T04:12:06.363Z,19.58
2019-06-27T04:13:06.345Z,19.53
2019-06-27T04:14:06.330Z,19.50
2019-06-27T04:15:06.339Z,19.53
2019-06-27T04:16:06.352Z,19.52
2019-06-27T04:17:06.295Z,19.50
2019-06-27T04:18:06.288Z,19.50
2019-06-27T04:19:06.275Z,19.60
2019-06-27T04:20:06.273Z,19.49
2019-06-27T04:21:06.284Z,19.60
2019-06-27T04:22:06.247Z,19.53
2019-06-27T04:23:06.233Z,19.60
2019-06-27T04:24:06.224Z,19.55
2019-06-27T04:25:06.210Z,19.55
2019-06-27T04:26:06.227Z,19.50
2019-06-27T04:27:06.186Z,19.43
2019-06-27T04:28:06.182Z,19.49
2019-06-27T04:29:06.242Z,19.53
2019-06-27T04:30:06.185Z,19.55
2019-06-27T04:31:06.172Z,19.52
2019-06-27T04:32:06.129Z,19.50
2019-06-27T04:33:06.116Z,19.46
2019-06-27T04:34:06.101Z,19.52
2019-06-27T04:35:06.101Z,19.46
2019-06-27T04:36:06.117Z,19.45
2019-06-27T04:37:06.068Z,19.42
2019-06-27T04:38:06.067Z,19.53
2019-06-27T04:39:06.052Z,19.43
2019-06-27T04:40:06.037Z,19.49
2019-06-27T04:41:06.069Z,19.40
2019-06-27T04:42:06.019Z,19.40
2019-06-27T04:43:06.511Z,19.40
2019-06-27T04:44:06.072Z,19.46
2019-06-27T04:45:05.987Z,19.46
2019-06-27T04:46:06.005Z,19.49
2019-06-27T04:47:05.958Z,19.46
2019-06-27T04:48:05.961Z,19.45
2019-06-27T04:49:05.940Z,19.46
2019-06-27T04:50:05.922Z,19.46
2019-06-27T04:51:05.943Z,19.43
2019-06-27T04:52:05.910Z,19.57
2019-06-27T04:53:05.902Z,19.52
2019-06-27T04:54:05.878Z,19.49
2019-06-27T04:55:05.886Z,19.46
2019-06-27T04:56:05.897Z,19.52
2019-06-27T04:57:05.846Z,19.46
2019-06-27T04:58:05.833Z,19.45
2019-06-27T04:59:05.824Z,19.53
2019-06-27T05:00:05.811Z,19.40
2019-06-27T05:01:05.833Z,19.49
2019-06-27T05:02:05.787Z,19.55
2019-06-27T05:03:05.775Z,19.53
2019-06-27T05:04:05.766Z,19.57
2019-06-27T05:05:05.752Z,19.52
2019-06-27T05:06:05.785Z,19.52
2019-06-27T05:07:05.730Z,19.49
2019-06-27T05:08:05.729Z,19.52
2019-06-27T05:09:05.710Z,19.49
2019-06-27T05:10:05.697Z,19.50
2019-06-27T05:11:05.738Z,19.55
2019-06-27T05:12:05.728Z,19.49
2019-06-27T05:13:05.665Z,19.47
2019-06-27T05:14:05.651Z,19.43
2019-06-27T05:15:05.647Z,19.47
2019-06-27T05:16:05.634Z,19.50
2019-06-27T05:17:05.658Z,19.53
2019-06-27T05:18:05.606Z,19.49
2019-06-27T05:19:05.597Z,19.46
2019-06-27T05:20:05.588Z,19.38
2019-06-27T05:21:05.575Z,19.46
2019-06-27T05:22:05.678Z,19.47
2019-06-27T05:23:05.551Z,19.43
2019-06-27T05:24:05.542Z,19.50
2019-06-27T05:25:05.530Z,19.52
2019-06-27T05:26:05.524Z,19.58
2019-06-27T05:27:05.548Z,19.46
2019-06-27T05:28:05.507Z,19.46
2019-06-27T05:29:05.485Z,19.49
2019-06-27T05:30:10.000Z,19.47
2019-06-27T05:31:06.465Z,19.39
2019-06-27T05:32:05.486Z,19.46
2019-06-27T05:33:05.464Z,19.42
2019-06-27T05:34:05.427Z,19.46
2019-06-27T05:35:05.416Z,19.52
2019-06-27T05:36:05.427Z,19.50
2019-06-27T05:37:05.422Z,19.49
2019-06-27T05:38:05.382Z,19.46
2019-06-27T05:39:05.370Z,19.49
2019-06-27T05:40:05.358Z,19.45
2019-06-27T05:41:05.348Z,19.49
2019-06-27T05:42:05.374Z,19.52
2019-06-27T05:43:05.335Z,19.45
2019-06-27T05:44:05.311Z,19.53
2019-06-27T05:45:05.305Z,19.46
2019-06-27T05:46:05.299Z,19.47
2019-06-27T05:47:05.311Z,19.58
2019-06-27T05:48:05.479Z,19.55
2019-06-27T05:49:05.256Z,19.55
2019-06-27T05:50:05.247Z,19.55
2019-06-27T05:51:05.242Z,19.64
2019-06-27T05:52:05.257Z,19.60
2019-06-27T05:53:05.213Z,19.58
2019-06-27T05:54:05.213Z,19.46
2019-06-27T05:55:05.188Z,19.50
2019-06-27T05:56:05.175Z,19.49
2019-06-27T05:57:05.195Z,19.60
2019-06-27T05:58:05.160Z,19.60
2019-06-27T05:59:05.143Z,19.61
2019-06-27T06:00:05.133Z,19.68
2019-06-27T06:01:05.121Z,19.61
2019-06-27T06:02:05.143Z,19.72
2019-06-27T06:03:05.098Z,19.60
2019-06-27T06:04:05.087Z,19.64
2019-06-27T06:05:05.082Z,19.71
2019-06-27T06:06:05.065Z,19.72
2019-06-27T06:07:05.087Z,19.71
2019-06-27T06:08:05.055Z,19.72
2019-06-27T06:09:05.037Z,19.71
2019-06-27T06:10:05.017Z,19.71
2019-06-27T06:11:05.017Z,19.71
2019-06-27T06:12:05.031Z,19.68
2019-06-27T06:13:04.982Z,19.75
2019-06-27T06:14:05.070Z,19.70
2019-06-27T06:15:04.962Z,19.70
2019-06-27T06:16:04.949Z,19.60
2019-06-27T06:17:04.974Z,19.78
2019-06-27T06:18:04.934Z,19.76
2019-06-27T06:19:04.916Z,19.75
2019-06-27T06:20:04.908Z,19.71
2019-06-27T06:21:04.904Z,19.72
2019-06-27T06:22:04.885Z,19.89
2019-06-27T06:23:04.905Z,19.92
2019-06-27T06:24:04.858Z,19.92
2019-06-27T06:25:04.851Z,19.94
2019-06-27T06:26:04.870Z,19.90
2019-06-27T06:27:04.830Z,19.98
2019-06-27T06:28:04.847Z,19.90
2019-06-27T06:29:04.802Z,20.00
2019-06-27T06:30:04.800Z,19.92
2019-06-27T06:31:04.789Z,19.95
2019-06-27T06:32:04.813Z,19.92
2019-06-27T06:33:04.797Z,19.92
2019-06-27T06:34:04.755Z,19.92
2019-06-27T06:35:04.741Z,19.92
2019-06-27T06:36:04.733Z,19.87
2019-06-27T06:37:07.922Z,19.87
2019-06-27T06:38:04.741Z,19.80
2019-06-27T06:39:04.693Z,19.76
2019-06-27T06:40:04.682Z,19.71
2019-06-27T06:41:04.667Z,19.82
2019-06-27T06:42:04.659Z,19.71
2019-06-27T06:43:04.681Z,19.70
2019-06-27T06:44:04.638Z,19.70
2019-06-27T06:45:04.627Z,19.76
2019-06-27T06:46:04.628Z,19.71
2019-06-27T06:47:04.599Z,19.65
2019-06-27T06:48:04.623Z,19.72
2019-06-27T06:49:04.579Z,19.71
2019-06-27T06:50:04.567Z,19.75
2019-06-27T06:51:04.594Z,19.76
2019-06-27T06:52:04.552Z,19.87
2019-06-27T06:53:04.567Z,19.87
2019-06-27T06:54:04.529Z,19.89
2019-06-27T06:55:04.508Z,19.94
2019-06-27T06:56:04.517Z,19.86
2019-06-27T06:57:04.485Z,19.79
2019-06-27T06:58:04.514Z,19.87
2019-06-27T06:59:04.465Z,19.92
2019-06-27T07:00:04.453Z,19.86
2019-06-27T07:01:04.445Z,19.87
2019-06-27T07:02:04.432Z,19.85
2019-06-27T07:03:04.468Z,19.97
2019-06-27T07:04:04.431Z,19.90
2019-06-27T07:05:04.401Z,19.86
2019-06-27T07:06:04.383Z,19.90
2019-06-27T07:07:04.387Z,19.95
2019-06-27T07:08:04.399Z,19.97
2019-06-27T07:09:04.362Z,19.92
2019-06-27T07:10:04.344Z,20.07
2019-06-27T07:11:04.340Z,20.00
2019-06-27T07:12:04.319Z,20.01
2019-06-27T07:13:04.343Z,19.98
2019-06-27T07:14:04.295Z,20.00
2019-06-27T07:15:04.282Z,19.98
2019-06-27T07:16:04.274Z,20.16
2019-06-27T07:17:04.259Z,20.16
2019-06-27T07:18:04.281Z,20.26
2019-06-27T07:19:04.242Z,20.23
2019-06-27T07:20:04.227Z,20.27
2019-06-27T07:21:04.215Z,20.23
2019-06-27T07:22:04.209Z,20.19
2019-06-27T07:23:04.243Z,20.23
2019-06-27T07:24:04.186Z,20.27
2019-06-27T07:25:04.170Z,20.22
2019-06-27T07:26:04.160Z,20.22
2019-06-27T07:27:04.150Z,20.31
2019-06-27T07:28:04.138Z,20.30
2019-06-27T07:29:04.199Z,20.41
2019-06-27T07:30:04.121Z,20.44
2019-06-27T07:31:16.897Z,20.50
2019-06-27T07:32:05.090Z,20.51
2019-06-27T07:33:04.084Z,20.53
2019-06-27T07:34:04.102Z,20.57
2019-06-27T07:35:04.058Z,20.63
2019-06-27T07:36:04.051Z,20.58
2019-06-27T07:37:04.045Z,20.58
2019-06-27T07:38:04.035Z,20.58
2019-06-27T07:39:04.155Z,20.63
2019-06-27T07:40:04.016Z,20.69
2019-06-27T07:41:03.997Z,20.56
2019-06-27T07:42:03.986Z,20.63
2019-06-27T07:43:04.315Z,20.58
2019-06-27T07:44:03.988Z,20.60
2019-06-27T07:45:03.944Z,20.64
2019-06-27T07:46:03.951Z,20.57
2019-06-27T07:47:03.921Z,20.68
2019-06-27T07:48:03.914Z,20.71
2019-06-27T07:49:03.930Z,20.66
2019-06-27T07:50:03.889Z,20.68
2019-06-27T07:51:03.891Z,20.64
2019-06-27T07:52:03.864Z,20.64
2019-06-27T07:53:03.860Z,20.66
2019-06-27T07:54:03.843Z,20.58
2019-06-27T07:55:03.870Z,20.60
2019-06-27T07:56:03.822Z,20.60
2019-06-27T07:57:03.818Z,20.73
2019-06-27T07:58:03.801Z,20.71
2019-06-27T07:59:03.793Z,20.73
2019-06-27T08:00:03.811Z,20.69
2019-06-27T08:01:03.777Z,20.60
2019-06-27T08:02:03.765Z,20.61
2019-06-27T08:03:03.742Z,20.66
2019-06-27T08:04:03.732Z,20.75
2019-06-27T08:05:03.755Z,20.68
2019-06-27T08:06:03.715Z,20.73
2019-06-27T08:07:03.703Z,20.71
2019-06-27T08:08:03.683Z,20.79
2019-06-27T08:09:03.679Z,20.73
2019-06-27T08:10:03.704Z,20.79
2019-06-27T08:11:03.654Z,20.79
2019-06-27T08:12:03.642Z,20.79
2019-06-27T08:13:03.633Z,20.82
2019-06-27T08:14:03.621Z,20.82
2019-06-27T08:15:03.662Z,20.79
2019-06-27T08:16:03.599Z,20.79
2019-06-27T08:17:03.590Z,20.78
2019-06-27T08:18:03.577Z,20.98
2019-06-27T08:19:03.569Z,20.90
2019-06-27T08:20:03.621Z,21.00
2019-06-27T08:21:03.541Z,20.93
2019-06-27T08:22:03.531Z,20.97
2019-06-27T08:23:03.593Z,20.96
2019-06-27T08:24:03.550Z,21.01
2019-06-27T08:25:03.502Z,20.97
2019-06-27T08:26:03.525Z,20.94
2019-06-27T08:27:03.474Z,20.93
2019-06-27T08:28:03.465Z,20.96
2019-06-27T08:29:03.494Z,20.93
2019-06-27T08:30:03.445Z,20.94
2019-06-27T08:31:03.462Z,21.01
2019-06-27T08:32:03.416Z,21.01
2019-06-27T08:33:03.405Z,21.09
2019-06-27T08:34:03.399Z,21.19
2019-06-27T08:35:03.383Z,21.22
2019-06-27T08:36:03.402Z,21.33
2019-06-27T08:37:03.361Z,21.30
2019-06-27T08:38:03.360Z,21.40
2019-06-27T08:39:03.367Z,21.46
2019-06-27T08:40:03.331Z,21.40
2019-06-27T08:41:03.373Z,21.40
2019-06-27T08:42:03.311Z,21.43
2019-06-27T08:43:03.300Z,21.55
2019-06-27T08:44:03.281Z,21.63
2019-06-27T08:45:03.283Z,21.63
2019-06-27T08:46:03.292Z,21.61
2019-06-27T08:47:03.247Z,21.70
2019-06-27T08:48:03.250Z,21.74
2019-06-27T08:49:03.232Z,21.70
2019-06-27T08:50:03.211Z,21.70
2019-06-27T08:51:03.238Z,21.58
2019-06-27T08:52:03.215Z,21.66
2019-06-27T08:53:03.184Z,21.55
2019-06-27T08:54:03.173Z,21.56
2019-06-27T08:55:03.160Z,21.68
2019-06-27T08:56:03.184Z,21.75
2019-06-27T08:57:03.151Z,21.79
2019-06-27T08:58:03.124Z,21.82
2019-06-27T08:59:03.695Z,21.91
2019-06-27T09:00:03.127Z,21.83
2019-06-27T09:01:03.123Z,21.98
2019-06-27T09:02:08.601Z,22.01
2019-06-27T09:03:04.072Z,21.98
2019-06-27T09:04:03.057Z,21.96
2019-06-27T09:05:03.058Z,22.06
2019-06-27T09:06:03.048Z,22.14
2019-06-27T09:07:03.056Z,22.19
2019-06-27T09:08:03.011Z,22.21
2019-06-27T09:09:03.034Z,22.20
2019-06-27T09:10:02.999Z,22.20
2019-06-27T09:11:03.061Z,22.19
2019-06-27T09:12:03.014Z,22.15
2019-06-27T09:13:03.079Z,22.21
2019-06-27T09:14:02.962Z,22.20
2019-06-27T09:15:02.934Z,22.20
2019-06-27T09:16:02.924Z,22.24
2019-06-27T09:17:02.948Z,22.30
2019-06-27T09:18:02.900Z,22.31
2019-06-27T09:19:02.890Z,22.31
2019-06-27T09:20:02.881Z,22.35
2019-06-27T09:21:02.872Z,22.38
2019-06-27T09:22:02.889Z,22.33
2019-06-27T09:23:02.842Z,22.44
2019-06-27T09:24:02.837Z,22.49
2019-06-27T09:25:02.832Z,22.51
2019-06-27T09:26:02.810Z,22.56
2019-06-27T09:27:02.834Z,22.69
2019-06-27T09:28:02.800Z,22.70
2019-06-27T09:29:02.805Z,22.75
2019-06-27T09:30:02.766Z,22.70
2019-06-27T09:31:02.762Z,22.78
2019-06-27T09:32:02.788Z,22.75
2019-06-27T09:33:02.742Z,22.82
2019-06-27T09:34:02.720Z,22.74
2019-06-27T09:35:02.708Z,22.70
2019-06-27T09:36:02.702Z,22.67
2019-06-27T09:37:02.719Z,22.82
2019-06-27T09:38:02.712Z,22.74
2019-06-27T09:39:02.665Z,22.88
2019-06-27T09:40:02.664Z,22.72
2019-06-27T09:41:02.651Z,22.85
2019-06-27T09:42:02.660Z,22.99
2019-06-27T09:43:02.639Z,23.00
2019-06-27T09:44:02.608Z,23.04
2019-06-27T09:45:02.597Z,23.09
2019-06-27T09:46:02.585Z,23.12
2019-06-27T09:47:02.613Z,23.15
2019-06-27T09:48:02.562Z,23.23
2019-06-27T09:49:02.559Z,23.39
2019-06-27T09:50:02.541Z,23.53
2019-06-27T09:51:02.530Z,23.50
2019-06-27T09:52:02.551Z,23.59
2019-06-27T09:53:02.517Z,23.52
2019-06-27T09:54:02.535Z,23.53
2019-06-27T09:55:02.480Z,23.52
2019-06-27T09:56:02.472Z,23.60
2019-06-27T09:57:02.489Z,23.54
2019-06-27T09:58:02.697Z,23.42
2019-06-27T09:59:02.443Z,23.52
2019-06-27T10:00:02.482Z,23.50
2019-06-27T10:01:05.748Z,23.59
2019-06-27T10:02:02.403Z,23.62
2019-06-27T10:03:02.423Z,23.68
2019-06-27T10:04:02.382Z,23.69
2019-06-27T10:05:02.372Z,23.72
2019-06-27T10:06:02.365Z,23.82
2019-06-27T10:07:02.408Z,23.92
2019-06-27T10:08:02.365Z,23.97
2019-06-27T10:09:02.356Z,24.08
2019-06-27T10:10:02.314Z,24.15
2019-06-27T10:11:02.311Z,24.14
2019-06-27T10:12:02.342Z,24.15
2019-06-27T10:13:02.310Z,24.19
2019-06-27T10:14:02.269Z,24.31
2019-06-27T10:15:02.284Z,24.34
2019-06-27T10:16:02.250Z,24.30
2019-06-27T10:17:02.252Z,24.37
2019-06-27T10:18:02.259Z,24.45
2019-06-27T10:19:02.221Z,24.45
2019-06-27T10:20:02.202Z,24.56
2019-06-27T10:21:02.190Z,24.59
2019-06-27T10:22:02.177Z,24.61
2019-06-27T10:23:02.202Z,24.71
2019-06-27T10:24:02.161Z,24.77
2019-06-27T10:25:02.256Z,24.77
2019-06-27T10:26:02.136Z,24.71
2019-06-27T10:27:02.129Z,24.84
2019-06-27T10:28:02.150Z,24.82
2019-06-27T10:29:02.287Z,24.87
2019-06-27T10:30:02.264Z,24.97
2019-06-27T10:31:02.079Z,25.01
2019-06-27T10:32:02.076Z,24.92
2019-06-27T10:33:02.095Z,24.98
2019-06-27T10:34:02.044Z,25.11
2019-06-27T10:35:02.041Z,24.97
2019-06-27T10:36:02.035Z,24.97
2019-06-27T10:37:02.111Z,24.93
2019-06-27T10:38:02.030Z,24.93
2019-06-27T10:39:02.008Z,24.94
2019-06-27T10:40:02.000Z,25.02
2019-06-27T10:41:01.972Z,25.12
2019-06-27T10:42:01.957Z,25.24
2019-06-27T10:43:01.977Z,25.57
2019-06-27T10:44:01.935Z,25.66
2019-06-27T10:45:02.129Z,25.94
2019-06-27T10:46:01.913Z,26.04
2019-06-27T10:47:01.917Z,26.16
2019-06-27T10:48:01.923Z,26.23
2019-06-27T10:49:01.885Z,26.29
2019-06-27T10:50:01.873Z,26.32
2019-06-27T10:51:01.863Z,26.32
2019-06-27T10:52:01.857Z,26.19
2019-06-27T10:53:01.865Z,26.09
2019-06-27T10:54:01.897Z,26.01
2019-06-27T10:55:01.817Z,26.12
2019-06-27T10:56:01.801Z,26.16
2019-06-27T10:57:01.793Z,26.31
2019-06-27T10:58:01.820Z,26.36
2019-06-27T10:59:01.809Z,26.51
2019-06-27T11:00:02.120Z,26.64
2019-06-27T11:01:01.745Z,26.64
2019-06-27T11:02:01.738Z,26.71
2019-06-27T11:03:15.097Z,26.75
2019-06-27T11:04:02.712Z,26.73
2019-06-27T11:05:01.752Z,26.72
2019-06-27T11:06:01.760Z,26.76
2019-06-27T11:07:01.681Z,26.78
2019-06-27T11:08:01.699Z,26.71
2019-06-27T11:09:01.657Z,26.75
2019-06-27T11:10:01.650Z,26.91
2019-06-27T11:11:01.765Z,26.94
2019-06-27T11:12:01.623Z,27.15
2019-06-27T11:13:01.723Z,27.15
2019-06-27T11:14:01.632Z,27.16
2019-06-27T11:15:01.611Z,27.13
2019-06-27T11:16:01.766Z,27.18
2019-06-27T11:17:01.679Z,27.18
2019-06-27T11:18:01.556Z,27.31
2019-06-27T11:19:01.579Z,27.43
2019-06-27T11:20:01.545Z,27.53
2019-06-27T11:21:01.524Z,27.61
2019-06-27T11:22:01.511Z,27.72
2019-06-27T11:23:01.502Z,27.98
2019-06-27T11:24:01.532Z,27.99
2019-06-27T11:25:01.838Z,27.98
2019-06-27T11:26:01.478Z,27.90
2019-06-27T11:27:01.456Z,27.81
2019-06-27T11:28:01.446Z,27.90
2019-06-27T11:29:01.508Z,28.08
2019-06-27T11:30:01.565Z,28.21
2019-06-27T11:31:01.411Z,28.21
2019-06-27T11:32:01.414Z,28.09
2019-06-27T11:33:01.408Z,28.15
2019-06-27T11:34:01.414Z,28.17
2019-06-27T11:35:01.379Z,28.17
2019-06-27T11:36:01.361Z,28.21
2019-06-27T11:37:01.352Z,28.24
2019-06-27T11:38:01.363Z,28.36
2019-06-27T11:39:01.493Z,28.40
2019-06-27T11:40:01.321Z,28.48
2019-06-27T11:41:01.311Z,28.54
2019-06-27T11:42:01.297Z,28.55
2019-06-27T11:43:01.285Z,28.60
2019-06-27T11:44:01.283Z,28.54
2019-06-27T11:45:01.300Z,28.46
2019-06-27T11:46:01.275Z,28.28
2019-06-27T11:47:01.252Z,28.28
2019-06-27T11:48:01.231Z,28.39
2019-06-27T11:49:01.247Z,28.38
2019-06-27T11:50:01.209Z,28.35
2019-06-27T11:51:01.221Z,28.43
2019-06-27T11:52:01.194Z,28.40
2019-06-27T11:53:01.174Z,28.65
2019-06-27T11:54:01.162Z,28.64
2019-06-27T11:55:01.320Z,28.65
2019-06-27T11:56:01.154Z,28.57
2019-06-27T11:57:01.141Z,28.52
2019-06-27T11:58:01.118Z,28.65
2019-06-27T11:59:01.205Z,28.55
2019-06-27T12:00:01.133Z,28.72
2019-06-27T12:01:01.099Z,28.60
2019-06-27T12:02:01.078Z,28.77
2019-06-27T12:03:01.066Z,28.82
2019-06-27T12:04:01.058Z,29.00
2019-06-27T12:05:01.098Z,28.95
2019-06-27T12:06:01.058Z,28.91
2019-06-27T12:07:01.024Z,28.85
2019-06-27T12:08:01.010Z,28.82
2019-06-27T12:09:01.003Z,28.74
2019-06-27T12:10:01.057Z,28.80
2019-06-27T12:11:00.990Z,28.91
2019-06-27T12:12:00.966Z,28.83
2019-06-27T12:13:00.955Z,28.80
2019-06-27T12:14:00.977Z,28.91
2019-06-27T12:15:00.970Z,28.98
2019-06-27T12:16:00.925Z,29.02
2019-06-27T12:17:00.918Z,28.98
2019-06-27T12:18:00.913Z,28.85
2019-06-27T12:19:00.896Z,28.92
2019-06-27T12:20:00.923Z,28.80
2019-06-27T12:21:00.870Z,28.94
2019-06-27T12:22:00.893Z,28.95
2019-06-27T12:23:00.850Z,29.03
2019-06-27T12:24:00.843Z,28.97
2019-06-27T12:25:00.879Z,28.83
2019-06-27T12:26:00.818Z,28.88
2019-06-27T12:27:00.807Z,28.80
2019-06-27T12:28:00.824Z,28.82
2019-06-27T12:29:00.782Z,28.97
2019-06-27T12:30:00.807Z,29.08
2019-06-27T12:31:00.766Z,29.21
2019-06-27T12:32:00.755Z,29.18
2019-06-27T12:33:00.755Z,29.11
2019-06-27T12:34:06.889Z,29.18
2019-06-27T12:35:01.757Z,29.21
2019-06-27T12:36:00.729Z,29.12
2019-06-27T12:37:00.702Z,29.15
2019-06-27T12:38:00.735Z,29.26
2019-06-27T12:39:00.681Z,29.36
2019-06-27T12:40:00.709Z,29.48
2019-06-27T12:41:00.660Z,29.60
2019-06-27T12:42:00.655Z,29.57
2019-06-27T12:43:00.660Z,29.60
2019-06-27T12:44:00.632Z,29.49
2019-06-27T12:45:00.809Z,29.62
2019-06-27T12:46:00.636Z,29.52
2019-06-27T12:47:00.608Z,29.71
2019-06-27T12:48:06.559Z,29.74
2019-06-27T12:49:01.574Z,29.42
2019-06-27T12:50:02.578Z,29.49
2019-06-27T12:51:00.586Z,29.47
2019-06-27T12:52:00.543Z,29.58